Time;durP1;ratioP1;P1;durP2;ratioP2;P2;SDS_P1;SDS_P2;PMS_P1;PMS_P2;Temp;Humidity;BMP_temperature;BMP_pressure;BME280_temperature;BME280_humidity;BME280_pressure;Samples;Min_cycle;Max_cycle;Signal;HPM_P1;HPM_P2
2022/08/21 00:00:07;;;;;;;14.15;5.47;;;;;;;15.02;73.01;99495.56;5088461;28;20028;-55
2022/08/21 00:02:32;;;;;;;11.35;5.70;;;;;;;14.92;72.05;99496.31;5092707;28;20058;-56
2022/08/21 00:04:58;;;;;;;16.88;5.82;;;;;;;14.84;73.91;99489.56;5091942;28;20031;-56
2022/08/21 00:07:24;;;;;;;21.25;6.22;;;;;;;14.79;73.49;99497.63;5092375;28;20035;-55
2022/08/21 00:09:49;;;;;;;15.38;6.00;;;;;;;15.00;72.91;99493.13;5092526;28;20436;-55
2022/08/21 00:12:14;;;;;;;15.88;6.18;;;;;;;14.87;72.65;99493.63;5092195;28;20031;-55
2022/08/21 00:14:40;;;;;;;14.20;6.03;;;;;;;14.75;73.19;99490.31;5073583;28;20091;-55
2022/08/21 00:17:06;;;;;;;19.75;6.78;;;;;;;14.74;72.82;99492.22;5074950;28;20111;-55
2022/08/21 00:19:31;;;;;;;18.05;7.32;;;;;;;14.69;72.99;99486.78;5091527;28;20497;-54
2022/08/21 00:21:57;;;;;;;23.77;6.78;;;;;;;14.72;72.93;99490.84;5092012;28;20024;-55
2022/08/21 00:24:23;;;;;;;21.48;6.93;;;;;;;14.70;72.89;99485.72;5091054;28;20024;-56
2022/08/21 00:26:48;;;;;;;21.88;6.20;;;;;;;14.67;73.54;99483.53;5091939;28;20028;-56
2022/08/21 00:29:14;;;;;;;18.90;6.82;;;;;;;14.54;74.86;99473.25;5092081;28;20042;-54
2022/08/21 00:31:40;;;;;;;19.55;7.50;;;;;;;14.78;73.64;99479.03;5093825;28;20016;-56
2022/08/21 00:34:06;;;;;;;18.67;7.47;;;;;;;14.83;73.41;99479.84;5092044;28;20103;-56
2022/08/21 00:36:32;;;;;;;16.63;7.63;;;;;;;14.89;72.88;99476.09;5091521;28;20028;-54
2022/08/21 00:38:57;;;;;;;14.23;6.55;;;;;;;14.84;73.18;99478.75;5091478;28;20089;-55
2022/08/21 00:41:23;;;;;;;23.38;7.32;;;;;;;14.78;73.43;99469.03;5087644;28;20032;-56
2022/08/21 00:43:48;;;;;;;19.45;7.22;;;;;;;14.84;73.63;99478.75;5091803;28;20028;-55
2022/08/21 00:46:14;;;;;;;22.73;7.22;;;;;;;14.73;73.59;99469.03;5091509;28;20663;-55
2022/08/21 00:48:39;;;;;;;21.00;7.65;;;;;;;14.71;73.87;99468.47;5073561;28;20032;-56
2022/08/21 00:51:07;;;;;;;24.58;7.63;;;;;;;14.75;74.00;99474.97;5091064;28;20028;-56
2022/08/21 00:53:32;;;;;;;22.88;7.43;;;;;;;14.76;73.23;99464.97;5074364;28;20115;-55
2022/08/21 00:55:58;;;;;;;15.70;7.47;;;;;;;14.74;73.71;99467.94;5091163;28;20122;-55
2022/08/21 00:58:24;;;;;;;18.80;7.32;;;;;;;14.65;74.12;99464.94;5084976;28;20081;-56
2022/08/21 01:00:49;;;;;;;19.05;7.40;;;;;;;14.90;74.75;99468.78;5086279;28;20034;-56
2022/08/21 01:03:18;;;;;;;18.52;6.10;;;;;;;14.75;75.01;99461.47;5091636;28;20393;-58
2022/08/21 01:05:43;;;;;;;15.00;6.28;;;;;;;14.33;74.21;99461.53;5090916;28;20031;-55
2022/08/21 01:08:09;;;;;;;15.00;6.20;;;;;;;14.16;74.41;99461.69;5091311;28;20047;-55
2022/08/21 01:10:35;;;;;;;18.25;7.00;;;;;;;14.46;74.87;99463.75;5055915;28;20039;-55
2022/08/21 01:13:00;;;;;;;18.05;7.05;;;;;;;14.30;74.75;99468.22;5072627;28;20032;-56
2022/08/21 01:15:30;;;;;;;15.57;7.15;;;;;;;14.39;74.76;99472.06;5073438;28;20028;-56
2022/08/21 01:17:55;;;;;;;21.40;7.20;;;;;;;14.51;74.59;99474.56;5057068;28;20461;-57
2022/08/21 01:20:21;;;;;;;15.30;6.68;;;;;;;14.50;75.39;99470.22;5092443;28;20024;-56
2022/08/21 01:22:46;;;;;;;16.17;7.25;;;;;;;14.12;74.08;99460.56;5091350;28;20039;-56
2022/08/21 01:25:14;;;;;;;21.23;7.10;;;;;;;13.93;74.96;99462.88;5072719;28;20024;-56
2022/08/21 01:27:40;;;;;;;29.13;7.82;;;;;;;13.68;77.50;99461.63;5090754;28;20032;-56
2022/08/21 01:30:12;;;;;;;25.48;7.35;;;;;;;13.47;78.22;99460.63;5090824;28;20031;-56
2022/08/21 01:32:38;;;;;;;21.02;7.55;;;;;;;13.69;77.91;99460.53;5090920;28;20016;-55
2022/08/21 01:35:04;;;;;;;23.27;7.60;;;;;;;13.84;77.68;99457.16;5089850;28;20032;-56
2022/08/21 01:37:29;;;;;;;22.85;7.57;;;;;;;13.81;77.15;99457.66;5080382;28;20024;-55
2022/08/21 01:39:54;;;;;;;18.80;7.75;;;;;;;13.92;77.30;99451.28;5089138;28;20062;-55
2022/08/21 01:42:20;;;;;;;18.08;6.95;;;;;;;14.06;76.42;99450.84;5090750;28;20103;-55
2022/08/21 01:44:46;;;;;;;15.63;7.15;;;;;;;14.12;76.31;99449.78;5090426;28;20039;-55
2022/08/21 01:47:12;;;;;;;19.95;6.95;;;;;;;14.12;76.20;99436.31;5090668;28;20073;-55
2022/08/21 01:49:38;;;;;;;21.77;7.07;;;;;;;14.22;76.32;99452.53;5090240;28;20012;-55
2022/08/21 01:52:04;;;;;;;20.33;7.10;;;;;;;14.07;75.27;99452.47;5090501;28;20024;-56
2022/08/21 01:54:29;;;;;;;17.48;7.22;;;;;;;13.63;76.31;99449.97;5090511;28;20482;-56
2022/08/21 01:56:55;;;;;;;21.95;7.63;;;;;;;13.64;77.74;99457.00;5090494;28;20428;-56
2022/08/21 01:59:21;;;;;;;20.55;7.57;;;;;;;13.52;76.94;99452.56;5090446;28;20028;-55
2022/08/21 02:01:47;;;;;;;19.38;7.50;;;;;;;13.35;78.50;99452.72;5072706;28;20054;-56
2022/08/21 02:04:12;;;;;;;24.55;8.38;;;;;;;13.29;79.21;99455.59;5090366;28;20028;-55
2022/08/21 02:06:37;;;;;;;22.17;7.63;;;;;;;13.32;78.70;99460.47;5089879;28;20085;-56
2022/08/21 02:09:04;;;;;;;24.63;8.25;;;;;;;13.31;80.23;99459.66;5090289;28;20082;-55
2022/08/21 02:11:31;;;;;;;23.02;7.75;;;;;;;13.30;80.62;99451.84;5090057;28;20020;-56
2022/08/21 02:13:56;;;;;;;17.25;6.70;;;;;;;13.27;79.05;99455.84;5088694;28;20036;-56
2022/08/21 02:16:22;;;;;;;22.42;7.28;;;;;;;13.29;79.54;99448.34;5090247;28;20119;-56
2022/08/21 02:18:47;;;;;;;18.55;7.88;;;;;;;13.22;79.71;99446.88;5072351;28;20069;-56
2022/08/21 02:21:13;;;;;;;27.20;7.82;;;;;;;13.22;80.43;99444.19;5089713;28;20679;-57
2022/08/21 02:23:38;;;;;;;19.38;7.40;;;;;;;13.21;79.52;99445.28;5090235;28;20028;-55
2022/08/21 02:26:04;;;;;;;24.50;8.18;;;;;;;13.21;80.08;99440.69;5081836;28;20428;-57
2022/08/21 02:28:30;;;;;;;23.45;7.43;;;;;;;13.05;80.49;99439.72;5090046;28;20032;-56
2022/08/21 02:30:56;;;;;;;21.42;8.13;;;;;;;13.13;80.69;99438.47;5090296;28;20035;-56
2022/08/21 02:33:22;;;;;;;14.00;7.22;;;;;;;13.16;79.39;99440.66;5090249;28;20032;-55
2022/08/21 02:35:47;;;;;;;17.75;8.07;;;;;;;13.42;81.42;99447.09;5070386;28;20023;-55
2022/08/21 02:38:16;;;;;;;16.55;7.60;;;;;;;13.17;80.03;99440.38;5090163;28;20040;-54
2022/08/21 02:40:43;;;;;;;26.33;7.97;;;;;;;13.23;80.78;99443.97;5089996;28;20043;-55
2022/08/21 02:43:09;;;;;;;25.27;8.02;;;;;;;13.46;78.90;99442.03;5090418;28;20032;-55
2022/08/21 02:45:34;;;;;;;15.52;7.40;;;;;;;13.33;78.96;99437.88;5090059;28;20024;-56
2022/08/21 02:48:02;;;;;;;18.58;7.72;;;;;;;13.24;79.63;99442.88;5093906;28;20028;-56
2022/08/21 02:50:33;;;;;;;21.85;8.10;;;;;;;13.11;79.74;99435.22;5093350;28;20107;-55
2022/08/21 02:52:58;;;;;;;17.13;6.90;;;;;;;13.11;83.04;99435.22;5093675;28;20547;-54
2022/08/21 02:55:26;;;;;;;20.25;7.15;;;;;;;13.04;80.79;99435.41;5075706;28;20032;-56
2022/08/21 02:57:52;;;;;;;24.08;8.25;;;;;;;13.04;81.43;99435.41;5075694;28;20115;-56
2022/08/21 03:00:17;;;;;;;14.13;6.72;;;;;;;13.02;82.68;99440.22;5089054;28;20109;-56
2022/08/21 03:02:44;;;;;;;25.23;7.97;;;;;;;12.84;81.37;99445.97;5094015;28;20112;-56
2022/08/21 03:05:09;;;;;;;28.05;8.18;;;;;;;12.83;81.33;99445.16;5092902;28;20051;-58
2022/08/21 03:07:38;;;;;;;19.15;7.82;;;;;;;12.78;82.61;99438.88;5094407;28;20482;-56
2022/08/21 03:10:05;;;;;;;28.90;7.78;;;;;;;12.73;83.26;99448.53;5095875;28;20020;-55
2022/08/21 03:12:30;;;;;;;21.05;8.40;;;;;;;12.61;82.00;99437.09;5093415;28;20024;-56
2022/08/21 03:14:57;;;;;;;14.88;7.50;;;;;;;12.64;82.91;99433.91;5093223;28;20035;-57
2022/08/21 03:17:23;;;;;;;18.63;7.97;;;;;;;12.68;82.41;99436.88;5093561;28;20082;-57
2022/08/21 03:19:49;;;;;;;19.45;8.60;;;;;;;12.71;82.70;99429.13;5092950;28;20020;-57
2022/08/21 03:22:14;;;;;;;17.48;7.70;;;;;;;12.71;83.64;99439.91;5093095;28;20411;-56
2022/08/21 03:24:40;;;;;;;19.05;7.88;;;;;;;12.84;83.60;99437.88;5093491;28;20027;-55
2022/08/21 03:27:05;;;;;;;24.23;7.80;;;;;;;12.73;83.07;99434.28;5093129;28;20394;-55
2022/08/21 03:29:30;;;;;;;21.60;7.50;;;;;;;12.63;82.58;99434.97;5075298;28;20043;-56
2022/08/21 03:31:56;;;;;;;21.70;8.80;;;;;;;12.46;83.33;99440.41;5093123;28;20027;-56
2022/08/21 03:34:21;;;;;;;21.27;8.73;;;;;;;12.46;83.62;99431.53;5093041;28;20032;-54
2022/08/21 03:36:48;;;;;;;25.85;8.27;;;;;;;12.57;83.59;99441.34;5092495;28;20027;-57
2022/08/21 03:39:14;;;;;;;24.17;8.82;;;;;;;12.49;84.30;99434.53;5085641;28;20036;-57
2022/08/21 03:41:40;;;;;;;19.92;8.40;;;;;;;12.51;83.81;99437.78;5097558;28;20024;-56
2022/08/21 03:44:05;;;;;;;23.02;8.55;;;;;;;12.52;83.95;99439.38;5092983;28;20034;-56
2022/08/21 03:46:31;;;;;;;19.55;8.63;;;;;;;12.49;83.89;99437.22;5092684;28;20565;-57
2022/08/21 03:48:57;;;;;;;26.50;9.43;;;;;;;12.90;84.84;99444.94;5093266;28;20020;-57
2022/08/21 03:51:22;;;;;;;22.98;7.75;;;;;;;12.76;82.94;99443.72;5092293;28;20447;-57
2022/08/21 03:53:48;;;;;;;18.60;8.13;;;;;;;12.66;81.97;99439.84;5092882;28;20020;-56
2022/08/21 03:56:13;;;;;;;18.45;7.78;;;;;;;12.35;82.40;99435.13;5092709;28;20340;-56
2022/08/21 03:58:38;;;;;;;17.65;7.88;;;;;;;12.24;82.21;99443.06;5092429;28;20039;-57
2022/08/21 04:01:05;;;;;;;20.85;8.40;;;;;;;12.06;84.15;99444.16;5092373;28;20390;-55
2022/08/21 04:03:31;;;;;;;20.90;8.60;;;;;;;12.06;85.53;99440.66;5092903;28;20381;-55
2022/08/21 04:05:56;;;;;;;31.45;9.38;;;;;;;12.12;85.60;99447.72;5091959;28;20032;-55
2022/08/21 04:08:22;;;;;;;18.40;9.07;;;;;;;11.92;86.42;99450.94;5092641;28;20028;-55
2022/08/21 04:10:53;;;;;;;22.75;9.85;;;;;;;11.82;87.24;99451.56;5092788;28;20095;-57
2022/08/21 04:13:19;;;;;;;19.45;9.18;;;;;;;11.84;88.04;99452.13;5087963;28;20051;-55
2022/08/21 04:15:45;;;;;;;27.05;9.70;;;;;;;12.08;87.08;99457.34;5092024;28;20059;-57
2022/08/21 04:18:10;;;;;;;28.50;9.80;;;;;;;12.08;86.08;99449.28;5092225;28;20616;-56
2022/08/21 04:20:35;;;;;;;19.17;8.93;;;;;;;12.10;86.58;99457.91;5092049;28;20048;-55
2022/08/21 04:23:02;;;;;;;29.50;10.20;;;;;;;12.24;85.59;99464.56;5092340;28;20103;-55
2022/08/21 04:25:28;;;;;;;20.48;9.40;;;;;;;12.12;84.11;99457.66;5096770;28;20024;-58
2022/08/21 04:27:53;;;;;;;23.30;8.30;;;;;;;11.96;84.42;99464.69;5096840;28;20032;-57
2022/08/21 04:30:21;;;;;;;25.00;8.95;;;;;;;11.85;83.93;99461.78;5102402;28;20031;-55
2022/08/21 04:32:47;;;;;;;30.45;9.65;;;;;;;11.97;86.25;99469.00;5092003;28;20114;-54
2022/08/21 04:35:13;;;;;;;16.98;8.50;;;;;;;11.96;86.00;99470.88;5091239;28;20036;-54
2022/08/21 04:37:39;;;;;;;20.10;8.32;;;;;;;11.80;86.81;99468.97;5091940;28;20055;-55
2022/08/21 04:40:05;;;;;;;25.85;9.35;;;;;;;11.82;87.39;99475.72;5096090;28;20023;-56
2022/08/21 04:42:30;;;;;;;21.58;9.23;;;;;;;12.19;87.39;99471.75;5091790;28;20031;-57
2022/08/21 04:44:56;;;;;;;23.15;8.88;;;;;;;12.30;84.73;99471.66;5090200;28;20020;-57
2022/08/21 04:47:21;;;;;;;24.63;9.30;;;;;;;12.60;83.25;99474.97;5090026;28;20039;-57
2022/08/21 04:49:48;;;;;;;24.65;9.10;;;;;;;13.02;81.93;99475.22;5091206;28;20534;-57
2022/08/21 04:52:14;;;;;;;25.63;9.48;;;;;;;12.78;84.10;99472.00;5091528;28;20038;-57
2022/08/21 04:54:39;;;;;;;22.15;9.43;;;;;;;13.52;81.15;99476.81;5091372;28;20032;-57
2022/08/21 04:57:07;;;;;;;32.72;9.98;;;;;;;14.35;76.05;99479.06;5090260;28;20062;-56
2022/08/21 04:59:40;;;;;;;28.23;9.30;;;;;;;15.34;70.98;99481.88;5093634;28;20041;-60
2022/08/21 05:02:06;;;;;;;25.08;7.70;;;;;;;16.02;67.09;99481.66;5111633;27;20587;-57
2022/08/21 05:04:32;;;;;;;23.25;7.60;;;;;;;16.38;66.75;99487.81;5093282;28;20039;-56
2022/08/21 05:07:00;;;;;;;24.70;7.63;;;;;;;17.28;63.40;99494.25;5107289;27;20031;-57
2022/08/21 05:09:26;;;;;;;23.08;7.70;;;;;;;16.61;64.97;99488.28;5101175;28;20042;-56
2022/08/21 05:11:52;;;;;;;23.92;7.78;;;;;;;17.51;63.12;99484.59;5121477;27;20020;-57
2022/08/21 05:14:17;;;;;;;25.15;8.02;;;;;;;18.00;61.10;99494.56;5111249;27;20105;-56
2022/08/21 05:16:43;;;;;;;17.05;7.85;;;;;;;19.18;58.23;99487.81;5111001;27;20035;-57
2022/08/21 05:19:09;;;;;;;24.20;8.20;;;;;;;18.77;57.57;99496.50;5113621;27;20032;-56
2022/08/21 05:21:34;;;;;;;24.17;7.78;;;;;;;19.17;57.07;99497.88;5098329;28;20069;-57
2022/08/21 05:24:00;;;;;;;25.02;8.48;;;;;;;19.98;54.96;99511.34;5111364;27;20100;-57
2022/08/21 05:26:25;;;;;;;27.10;7.95;;;;;;;20.35;54.46;99504.19;5111260;27;20035;-56
2022/08/21 05:28:51;;;;;;;19.70;7.53;;;;;;;20.24;53.82;99505.47;5116365;27;20024;-56
2022/08/21 05:31:17;;;;;;;18.88;7.28;;;;;;;20.47;53.32;99503.69;5111002;28;20053;-57
2022/08/21 05:33:42;;;;;;;18.83;6.90;;;;;;;21.57;50.46;99500.06;5111216;27;20028;-56
2022/08/21 05:36:08;;;;;;;19.23;7.05;;;;;;;21.23;50.59;99509.50;5110775;28;20031;-56
2022/08/21 05:38:33;;;;;;;16.17;6.68;;;;;;;21.78;49.16;99508.56;5111176;27;20030;-55
2022/08/21 05:40:58;;;;;;;16.08;7.13;;;;;;;22.18;47.98;99512.19;5111203;28;20369;-56
2022/08/21 05:43:24;;;;;;;20.52;6.45;;;;;;;22.16;48.25;99503.50;5117745;27;20476;-56
2022/08/21 05:45:49;;;;;;;18.40;6.40;;;;;;;22.94;46.08;99510.41;5093119;28;20033;-56
2022/08/21 05:48:17;;;;;;;21.38;7.45;;;;;;;22.88;46.16;99503.50;5111139;28;20028;-56
2022/08/21 05:50:43;;;;;;;18.65;7.15;;;;;;;23.03;47.27;99506.63;5110586;27;20076;-56
2022/08/21 05:53:09;;;;;;;19.92;6.10;;;;;;;22.58;45.95;99509.50;5111328;28;20027;-56
2022/08/21 05:55:36;;;;;;;17.63;6.60;;;;;;;22.54;46.53;99499.53;5093008;27;20089;-56
2022/08/21 05:58:01;;;;;;;18.90;6.38;;;;;;;22.94;46.47;99503.06;5110814;28;20111;-56
2022/08/21 06:00:27;;;;;;;17.23;6.22;;;;;;;23.34;46.71;99502.97;5111141;28;20048;-56
2022/08/21 06:02:52;;;;;;;23.90;6.95;;;;;;;22.86;47.22;99495.63;5110891;28;20085;-57
2022/08/21 06:05:18;;;;;;;15.38;6.82;;;;;;;22.11;49.69;99498.16;5110719;28;20035;-57
2022/08/21 06:07:43;;;;;;;20.08;6.18;;;;;;;23.93;46.06;99488.00;5110743;28;20031;-60
2022/08/21 06:10:09;;;;;;;13.85;5.95;;;;;;;23.38;47.56;99495.72;5104699;28;20035;-56
2022/08/21 06:12:34;;;;;;;19.38;7.07;;;;;;;21.42;51.16;99500.44;5088016;28;20038;-56
2022/08/21 06:14:59;;;;;;;18.17;6.43;;;;;;;23.12;47.77;99487.50;5110923;28;20096;-56
2022/08/21 06:17:25;;;;;;;17.40;5.85;;;;;;;23.98;45.30;99493.31;5092360;28;20035;-56
2022/08/21 06:19:52;;;;;;;17.40;5.97;;;;;;;24.37;44.57;99496.91;5110419;28;20039;-57
2022/08/21 06:22:17;;;;;;;18.98;6.30;;;;;;;25.36;42.52;99500.13;5114817;27;20533;-57
2022/08/21 06:24:43;;;;;;;13.20;5.50;;;;;;;24.78;43.31;99506.41;5115034;27;20031;-56
2022/08/21 06:27:08;;;;;;;17.98;6.07;;;;;;;25.17;42.84;99502.50;5114739;27;20470;-57
2022/08/21 06:29:34;;;;;;;21.38;6.18;;;;;;;25.76;41.41;99507.03;5114798;27;20020;-55
2022/08/21 06:31:59;;;;;;;18.55;5.95;;;;;;;25.59;41.82;99508.81;5096409;27;20027;-56
2022/08/21 06:34:25;;;;;;;16.30;5.95;;;;;;;26.20;40.55;99510.97;5114347;27;20028;-55
2022/08/21 06:36:50;;;;;;;22.08;6.15;;;;;;;26.59;40.15;99511.53;5114790;27;20024;-56
2022/08/21 06:39:16;;;;;;;15.85;6.18;;;;;;;26.36;40.49;99494.66;5096543;28;20466;-56
2022/08/21 06:41:41;;;;;;;16.98;5.97;;;;;;;26.24;40.62;99500.13;5114387;27;20032;-54
2022/08/21 06:44:07;;;;;;;14.75;6.22;;;;;;;26.03;40.58;99501.00;5114444;27;20382;-56
2022/08/21 06:46:33;;;;;;;17.48;5.95;;;;;;;27.11;39.11;99505.31;5114229;27;20069;-56
2022/08/21 06:48:58;;;;;;;13.32;5.78;;;;;;;27.16;39.18;99500.72;5114339;27;20023;-56
2022/08/21 06:51:25;;;;;;;19.05;5.80;;;;;;;26.69;39.65;99493.78;5113905;27;20043;-57
2022/08/21 06:53:50;;;;;;;13.43;5.93;;;;;;;26.94;39.89;99493.78;5114296;27;20032;-56
2022/08/21 06:56:16;;;;;;;15.25;5.15;;;;;;;26.39;40.45;99496.72;5114160;27;20027;-57
2022/08/21 06:58:41;;;;;;;13.98;5.20;;;;;;;27.37;38.88;99500.59;5114101;27;20028;-56
2022/08/21 07:01:07;;;;;;;20.15;5.80;;;;;;;26.31;40.38;99494.88;5095905;28;20020;-56
2022/08/21 07:03:35;;;;;;;18.20;5.85;;;;;;;26.83;40.05;99494.25;5095945;28;20019;-55
2022/08/21 07:06:01;;;;;;;13.73;6.43;;;;;;;26.62;39.56;99493.56;5084943;27;20473;-56
2022/08/21 07:08:26;;;;;;;16.08;5.70;;;;;;;26.99;39.60;99485.28;5086339;28;20075;-56
2022/08/21 07:10:52;;;;;;;22.50;6.63;;;;;;;27.23;39.20;99490.78;5095602;28;20072;-56
2022/08/21 07:13:18;;;;;;;17.25;5.60;;;;;;;25.68;42.21;99496.94;5095270;28;20063;-56
2022/08/21 07:15:44;;;;;;;18.08;6.00;;;;;;;27.48;39.13;99486.00;5114073;27;20037;-55
2022/08/21 07:18:10;;;;;;;17.10;5.95;;;;;;;27.66;38.58;99481.00;5113934;27;20340;-56
2022/08/21 07:20:36;;;;;;;19.73;6.05;;;;;;;27.34;38.90;99479.28;5113048;27;20443;-56
2022/08/21 07:23:04;;;;;;;15.38;5.97;;;;;;;26.80;40.14;99472.13;5113661;27;20027;-56
2022/08/21 07:25:29;;;;;;;14.32;5.50;;;;;;;28.39;37.62;99473.47;5095340;27;20038;-56
2022/08/21 07:27:55;;;;;;;17.13;6.00;;;;;;;27.61;38.80;99472.97;5113667;27;20443;-55
2022/08/21 07:30:20;;;;;;;16.17;5.85;;;;;;;26.58;39.83;99474.19;5113478;27;20473;-56
2022/08/21 07:32:48;;;;;;;19.80;6.10;;;;;;;26.23;41.56;99473.78;5113117;27;20049;-55
2022/08/21 07:35:14;;;;;;;17.60;5.55;;;;;;;28.20;38.36;99476.13;5108461;28;20504;-55
2022/08/21 07:37:40;;;;;;;13.60;5.43;;;;;;;27.58;38.42;99473.66;5113494;27;20028;-55
2022/08/21 07:40:06;;;;;;;14.38;5.35;;;;;;;27.70;38.92;99470.84;5113158;27;20482;-55
2022/08/21 07:42:31;;;;;;;18.70;6.07;;;;;;;28.22;37.69;99469.13;5113815;27;20024;-55
2022/08/21 07:44:56;;;;;;;20.45;6.47;;;;;;;28.12;38.30;99466.88;5113557;27;20015;-55
2022/08/21 07:47:22;;;;;;;14.95;5.90;;;;;;;27.67;39.39;99460.56;5117739;27;20473;-55
2022/08/21 07:49:47;;;;;;;26.40;7.30;;;;;;;27.10;39.52;99464.38;5113546;27;20035;-55
2022/08/21 07:52:13;;;;;;;18.10;6.68;;;;;;;28.15;38.69;99466.97;5113359;27;20019;-55
2022/08/21 07:54:38;;;;;;;19.15;7.90;;;;;;;27.38;39.40;99463.66;5113062;27;20503;-55
2022/08/21 07:57:04;;;;;;;28.85;8.23;;;;;;;27.63;39.25;99465.19;5113900;27;20035;-55
2022/08/21 07:59:29;;;;;;;17.27;6.80;;;;;;;27.61;39.25;99472.97;5113213;27;20179;-54
2022/08/21 08:01:56;;;;;;;21.00;7.93;;;;;;;26.78;40.55;99469.69;5113242;27;20055;-55
2022/08/21 08:04:21;;;;;;;21.77;8.57;;;;;;;26.62;40.50;99469.59;5107068;28;20039;-54
2022/08/21 08:06:47;;;;;;;14.70;6.22;;;;;;;27.73;39.46;99470.19;5112499;27;20038;-55
2022/08/21 08:09:12;;;;;;;26.15;7.53;;;;;;;27.57;39.24;99469.31;5077848;28;20031;-54
2022/08/21 08:11:38;;;;;;;19.65;7.13;;;;;;;27.35;40.05;99465.16;5112829;27;20381;-54
2022/08/21 08:14:03;;;;;;;19.67;7.68;;;;;;;27.40;39.40;99469.63;5094581;27;20048;-54
2022/08/21 08:16:29;;;;;;;17.35;7.25;;;;;;;26.83;40.74;99472.25;5112716;28;20027;-54
2022/08/21 08:18:55;;;;;;;16.92;7.35;;;;;;;25.86;42.05;99467.41;5112997;27;20462;-53
2022/08/21 08:21:20;;;;;;;19.48;7.20;;;;;;;25.48;43.92;99477.41;5111923;27;20034;-54
2022/08/21 08:23:46;;;;;;;22.85;7.30;;;;;;;26.49;41.82;99470.72;5112333;27;20035;-55
2022/08/21 08:26:12;;;;;;;18.00;7.15;;;;;;;25.37;43.00;99476.22;5094182;28;20114;-57
2022/08/21 08:28:37;;;;;;;21.15;6.60;;;;;;;25.89;42.97;99475.78;5112676;27;20059;-56
2022/08/21 08:31:03;;;;;;;24.10;6.35;;;;;;;26.77;41.67;99479.09;5112709;27;20076;-56
2022/08/21 08:33:28;;;;;;;18.40;6.43;;;;;;;27.80;39.59;99468.75;5112360;27;20036;-56
2022/08/21 08:35:54;;;;;;;23.35;6.90;;;;;;;28.08;38.61;99465.97;5111500;27;20456;-56
2022/08/21 08:38:20;;;;;;;19.80;6.03;;;;;;;28.90;38.13;99468.00;5111993;27;20466;-55
2022/08/21 08:41:00;;;;;;;20.63;5.85;;;;;;;28.35;38.36;99456.03;5112273;27;20084;-55
2022/08/21 08:43:29;;;;;;;20.85;6.15;;;;;;;27.97;38.56;99457.44;5106382;28;20114;-55
2022/08/21 08:45:55;;;;;;;;;;;;;;;28.31;36.95;99450.44;5111610;27;20023;-55
2022/08/21 08:48:51;;;;;;;16.20;5.72;;;;;;;27.86;37.02;99445.38;5115789;27;20001;-54
2022/08/21 08:51:23;;;;;;;21.55;5.40;;;;;;;27.52;37.38;99436.53;5111548;27;20110;-55
2022/08/21 08:53:51;;;;;;;19.85;6.85;;;;;;;26.71;39.10;99436.50;5089862;27;20045;-56
2022/08/21 08:56:18;;;;;;;19.52;6.40;;;;;;;26.22;40.08;99441.97;5093524;28;20643;-54
2022/08/21 08:58:44;;;;;;;18.15;5.70;;;;;;;26.92;38.98;99441.06;5107935;27;20389;-55
2022/08/21 09:01:18;;;;;;;14.82;5.10;;;;;;;25.74;40.74;99437.97;5112033;27;20092;-55
2022/08/21 09:03:49;;;;;;;18.25;6.22;;;;;;;26.10;40.34;99434.50;5111892;27;20067;-55
2022/08/21 09:06:40;;;;;;;15.32;4.47;;;;;;;26.67;38.06;99435.59;5085032;27;20409;-55
2022/08/21 09:09:26;;;;;;;18.63;4.63;;;;;;;27.77;37.44;99441.94;5083186;28;20466;-55
2022/08/21 09:12:08;;;;;;;15.80;4.10;;;;;;;28.46;36.16;99440.59;5079745;28;20032;-54
2022/08/21 09:14:52;;;;;;;16.58;4.28;;;;;;;28.96;35.46;99447.25;5083475;28;20075;-55
2022/08/21 09:17:52;;;;;;;17.58;5.68;;;;;;;27.00;37.45;99437.38;5080158;28;20036;-58
2022/08/21 09:20:29;;;;;;;;;;;;;;;26.80;38.08;99436.38;5069066;28;20031;-56
2022/08/21 09:23:19;;;;;;;15.68;4.78;;;;;;;26.45;37.98;99434.88;5083572;28;19923;-54
2022/08/21 09:26:06;;;;;;;13.10;4.03;;;;;;;25.37;39.22;99438.63;5075214;28;20036;-56
2022/08/21 09:28:33;;;;;;;12.48;4.10;;;;;;;26.42;38.42;99427.31;5082383;28;20478;-56
2022/08/21 09:31:02;;;;;;;11.15;3.67;;;;;;;26.88;37.40;99419.75;5086526;28;20028;-57
2022/08/21 09:33:27;;;;;;;13.97;4.40;;;;;;;27.37;36.69;99418.03;5080475;28;20052;-56
2022/08/21 09:35:54;;;;;;;12.45;3.97;;;;;;;25.78;38.88;99416.91;5106923;27;20066;-54
2022/08/21 09:38:31;;;;;;;11.98;3.90;;;;;;;25.69;39.27;99414.28;5086093;28;20504;-55
2022/08/21 09:41:03;;;;;;;12.18;4.07;;;;;;;25.89;39.05;99406.34;5082564;28;20552;-54
2022/08/21 09:43:29;;;;;;;25.20;7.65;;;;;;;26.10;38.07;99411.75;5072544;28;20025;-55
2022/08/21 09:46:05;;;;;;;13.40;4.07;;;;;;;24.70;39.85;99402.00;5081095;28;20028;-55
2022/08/21 09:48:47;;;;;;;15.35;3.70;;;;;;;24.13;40.86;99405.16;5083401;28;20028;-54
2022/08/21 09:51:16;;;;;;;11.98;3.80;;;;;;;25.15;40.01;99400.53;5072553;28;20081;-55
2022/08/21 09:53:53;;;;;;;13.37;3.90;;;;;;;26.14;37.68;99393.44;5078639;28;20048;-54
2022/08/21 09:59:24;;;;;;;13.52;3.60;;;;;;;28.18;34.71;99391.88;5078543;28;20026;-56
2022/08/21 10:01:50;;;;;;;17.65;3.47;;;;;;;27.03;37.00;99387.16;5079669;28;20032;-55
2022/08/21 10:04:21;;;;;;;12.73;3.55;;;;;;;27.31;36.31;99377.00;5079763;28;20051;-55
2022/08/21 10:06:46;;;;;;;10.35;3.85;;;;;;;27.64;36.06;99383.38;5085535;28;20024;-53
2022/08/21 10:09:17;;;;;;;9.80;3.33;;;;;;;27.91;35.34;99374.28;5085913;28;20111;-55
2022/08/21 10:11:51;;;;;;;12.90;3.88;;;;;;;29.10;33.82;99379.78;5084437;28;20074;-56
2022/08/21 10:14:33;;;;;;;11.57;3.30;;;;;;;28.22;34.50;99383.69;5084352;28;20024;-55
2022/08/21 10:17:24;;;;;;;13.82;3.50;;;;;;;29.28;33.43;99378.19;5091680;28;20080;-55
2022/08/21 10:19:53;;;;;;;15.05;3.80;;;;;;;29.66;32.64;99376.56;5073388;28;20044;-52
2022/08/21 10:22:29;;;;;;;11.30;3.72;;;;;;;29.62;32.47;99361.84;5091037;28;20116;-54
2022/08/21 10:25:10;;;;;;;7.90;3.25;;;;;;;29.40;32.71;99361.44;5053856;28;20036;-55
2022/08/21 10:27:45;;;;;;;13.23;3.65;;;;;;;28.18;34.53;99364.34;5066138;28;20169;-55
2022/08/21 10:30:30;;;;;;;11.98;3.65;;;;;;;29.06;33.41;99363.16;5054043;28;20475;-55
2022/08/21 10:33:27;;;;;;;11.20;3.85;;;;;;;27.43;35.01;99350.56;5065002;28;20028;-54
2022/08/21 10:36:09;;;;;;;10.18;3.28;;;;;;;27.96;34.85;99351.19;5057464;28;20025;-55
2022/08/21 10:38:52;;;;;;;11.18;3.60;;;;;;;27.71;34.96;99345.81;5053625;28;20056;-54
2022/08/21 10:41:38;;;;;;;12.35;3.20;;;;;;;29.50;32.50;99348.22;5093817;28;20056;-56
2022/08/21 10:44:12;;;;;;;10.52;3.50;;;;;;;30.01;32.12;99347.94;5060507;28;20132;-55
2022/08/21 10:46:56;;;;;;;13.32;3.65;;;;;;;29.59;32.15;99346.81;5061306;28;20033;-55
2022/08/21 10:49:31;;;;;;;14.95;3.40;;;;;;;28.96;32.66;99353.47;5070510;28;20031;-55
2022/08/21 10:52:35;;;;;;;17.67;3.60;;;;;;;29.96;31.83;99345.50;5104235;28;20020;-54
2022/08/21 10:55:10;;;;;;;12.18;3.97;;;;;;;30.59;31.54;99347.66;5070318;28;20068;-55
2022/08/21 10:57:53;;;;;;;10.32;3.17;;;;;;;30.04;31.98;99349.97;5077124;28;20483;-53
2022/08/21 11:00:21;;;;;;;9.52;3.30;;;;;;;29.77;31.68;99352.66;5070980;28;20032;-55
2022/08/21 11:03:01;;;;;;;9.82;3.47;;;;;;;29.42;32.81;99350.03;5053403;28;20032;-55
2022/08/21 11:05:53;;;;;;;11.02;3.40;;;;;;;30.02;31.65;99344.00;5065657;28;20450;-55
2022/08/21 11:08:37;;;;;;;10.57;3.15;;;;;;;30.08;31.38;99342.53;5064093;28;20047;-55
2022/08/21 11:11:33;;;;;;;13.30;3.28;;;;;;;26.84;35.81;99341.84;5060933;28;20033;-55
2022/08/21 11:14:11;;;;;;;12.10;3.33;;;;;;;27.54;35.21;99335.16;5068169;28;20063;-54
2022/08/21 11:16:37;;;;;;;13.10;3.28;;;;;;;27.80;34.46;99337.38;5069818;28;20047;-55
2022/08/21 11:19:14;;;;;;;13.07;3.97;;;;;;;28.04;33.89;99336.44;5070994;28;20475;-54
2022/08/21 11:21:47;;;;;;;9.77;3.15;;;;;;;28.32;33.69;99333.53;5066812;28;20044;-54
2022/08/21 11:24:18;;;;;;;11.77;3.30;;;;;;;28.03;33.47;99329.34;5052936;28;20074;-54
2022/08/21 11:26:51;;;;;;;13.68;3.65;;;;;;;27.69;33.99;99331.59;5065417;28;20036;-55
2022/08/21 11:29:28;;;;;;;9.90;3.35;;;;;;;28.08;33.70;99329.06;5050484;28;20103;-55
2022/08/21 11:32:41;;;;;;;11.38;3.03;;;;;;;26.49;35.54;99329.78;5055675;28;21482;-55
2022/08/21 11:35:31;;;;;;;10.65;3.20;;;;;;;26.55;36.00;99322.91;5012809;28;20969;-54